Prochaines Courses

Connexion

Wirwignes 2013 10 KM

 

10KM FOULEES PENTECOTE du 19/05/13 (Reelle 10,5)
Rang Dossard Nom Prénom Temps Cat Rang Cat Ecart Ecart Cat Club Vitesse Km/h Temps au Km
1 253 KUSCHNICK PHILIPPE 00:37:33 V1M 1 00:00:00 00:00:00 CAP OPALE 16,778 03:35
2 146 LOEUILLIEUX STEPHANE 00:38:49 V1M 2 00:01:16 00:01:16 LE DRAPEAU 16,230 03:42
3 132 LACROIX OLIVIER 00:39:14 SEM 1 00:01:41 00:00:00 AMICALE HOSPITALIERS BOULOGNE 16,058 03:44
4 291 DELLIAUX OLIVIER 00:39:18 SEM 2 00:01:45 00:00:04 T2CAPATHLON 16,031 03:45
5 320 MAQUINGHEN CHRISTOPHE 00:39:51 SEM 3 00:02:18 00:00:37 BOULOGNE ATHLETIQUE CLUB 15,809 03:48
6 313 CARBONNIER MICHEL 00:39:59 V1M 3 00:02:26 00:02:26 PATRIOTE CROSS DE GUINES 15,757 03:48
7 170 HOYER JOHNNY 00:40:02 SEM 4 00:02:29 00:00:48 LE DRAPEAU 15,737 03:49
8 326 GOURDIN ERIC 00:40:18 V1M 4 00:02:45 00:02:45 ESCAP'AVENTURE 15,633 03:50
9 328 HAIGNERE WILLIAM 00:40:37 SEM 5 00:03:04 00:01:23 BOURTHES 15,511 03:52
10 275 OSSTYN PATRICE 00:40:39 V1M 5 00:03:06 00:03:06 NON LICENCIE 15,498 03:52
11 151 CARDON FLORIAN 00:40:43 JUM 1 00:03:10 00:00:00 LE DRAPEAU 15,473 03:53
12 260 LEFEVRE KEVIN 00:40:44 SEM 6 00:03:11 00:01:30 ATHLETISME CLUB OUTREAU 15,466 03:53
13 247 DUCLOY KEVIN 00:40:46 SEM 7 00:03:13 00:01:32 SAINT MARTIN ATHLETISME 15,454 03:53
14 267 SAILLY NICOLAS 00:40:52 SEM 8 00:03:19 00:01:38 ASU DUNKERQUE 15,416 03:54
15 149 DOCQUOIS FREDERIC 00:40:57 V1M 6 00:03:24 00:03:24 LE DRAPEAU 15,385 03:54
16 238 CHAUMAT ROLAND 00:41:00 V1M 7 00:03:27 00:03:27 NON LICENCIE 15,366 03:54
17 297 LEROUX GUILLAUME 00:41:08 SEM 9 00:03:35 00:01:54 TEAM TRAIL 62 15,316 03:55
18 276 BRUNEL STEPHANE 00:41:45 V1M 8 00:04:12 00:04:12 ATHLETISME CLUB OUTREAU 15,090 03:59
19 218 MARIQUE BERTRAND 00:41:50 V1M 9 00:04:17 00:04:17 COLEMBERT 15,060 03:59
20 243 HODIQUE HERVE 00:42:04 V1M 10 00:04:31 00:04:31 TEAM TRAIL 62 14,976 04:00
21 314 FANCHON DIDIER 00:42:13 V1M 11 00:04:40 00:04:40 NON LICENCIE 14,923 04:01
22 295 VAILLANT JEROME 00:42:13 SEM 10 00:04:40 00:02:59 NON LICENCIE 14,923 04:01
23 259 DEFOSSE CEDRIC 00:42:14 SEM 11 00:04:41 00:03:00 ESCAP'AVENTURE 14,917 04:01
24 245 DELPIERRE BENOIT 00:42:24 V1M 12 00:04:51 00:04:51 BOULOGNE CANOE KAYAK 14,858 04:02
25 289 HEUX VALENTIN 00:42:41 JUM 2 00:05:08 00:01:58 COLEMBERT 14,760 04:04
26 284 COEUGNET MANUEL 00:42:50 SEM 12 00:05:17 00:03:36 SPORT EVASION DES 2 CAPS 14,708 04:05
27 131 FORESTIER ALAIN 00:42:53 V1M 13 00:05:20 00:05:20 AMICALE HOSPITALIERS BOULOGNE 14,691 04:05
28 187 TOULOTTE JASON 00:43:03 SEM 13 00:05:30 00:03:49 NON LICENCIE 14,634 04:06
29 327 HARLE OLIVIER 00:43:13 SEM 14 00:05:40 00:03:59 BOURTHES 14,578 04:07
30 195 LECLERCQ MAXIME 00:43:14 SEM 15 00:05:41 00:04:00 NON LICENCIE 14,572 04:07
31 232 MENUGE JULIEN 00:43:19 SEM 16 00:05:46 00:04:05 NON LICENCIE 14,544 04:08
32 177 PÂQUES FRANCOIS 00:43:24 SEM 17 00:05:51 00:04:10 NON LICENCIE 14,516 04:08
33 119 DUCROCQ CHRISTOPHE 00:43:24 V1M 14 00:05:51 00:05:51 NON LICENCIE 14,516 04:08
34 226 LEMAITRE NICOLAS 00:43:30 SEM 18 00:05:57 00:04:16 PATRIOTES DE GUINES 14,483 04:09
35 283 DOCQUOIS FLORIAN 00:43:36 CAM 1 00:06:03 00:00:00 ATHLETISME CLUB OUTREAU 14,450 04:09
36 296 BOURGAIN MICKAEL 00:43:47 SEM 19 00:06:14 00:04:33 OPALE TRAIL NATURE 14,389 04:10
37 122 ANSEL SERGE 00:43:52 V1M 15 00:06:19 00:06:19 SPORT PLUS 14,362 04:11
38 137 SOLON LAURENT 00:44:03 SEM 20 00:06:30 00:04:49 AMICALE HOSPITALIERS BOULOGNE 14,302 04:12
39 213 LEDOLLEY CHRISTOPHE 00:44:17 V1M 16 00:06:44 00:06:44 ATHLETIQUE CLUB CAPELLOIS 14,227 04:13
40 102 DACQUIN FABIEN 00:44:19 V1M 17 00:06:46 00:06:46 TEAM TRAIL 62 14,216 04:13
41 117 DELAVIEZ JEAN-MARC 00:44:21 V2M 1 00:06:48 00:00:00 FREVENT OLYMPIC CLUB 14,205 04:13
42 118 GRESSIER OLIVIER 00:44:22 V1M 18 00:06:49 00:06:49 FREVENT OLYMPIC CLUB 14,200 04:14
43 212 RUMEAUX MICKAEL 00:44:29 V1M 19 00:06:56 00:06:56 ATHLETIQUE CLUB CAPELLOIS 14,163 04:14
44 161 LEVEL FABIEN 00:44:42 SEM 21 00:07:09 00:05:28 LE DRAPEAU 14,094 04:15
45 322 MALLIOPOULOS XAVIER 00:44:55 V1M 20 00:07:22 00:07:22 BERCK A C O 14,026 04:17
46 282 DUCROCQ YVES 00:44:59 V2M 2 00:07:26 00:00:38 NON LICENCIE 14,005 04:17
47 167 LELEU LAETITIA 00:45:06 SEF 1 00:07:33 00:00:00 LE DRAPEAU 13,969 04:18
48 277 BULTEZ LUDOVIC 00:45:09 V1M 21 00:07:36 00:07:36 NON LICENCIE 13,953 04:18
49 271 TELLIEZ ERIC 00:45:12 V2M 3 00:07:39 00:00:51 NON LICENCIE 13,938 04:18
50 116 DEBUSSCHERE MIKAEL 00:45:20 SEM 22 00:07:47 00:06:06 ATHLETISME CLUB OUTREAU 13,897 04:19
51 308 SAUVAGE CHARLIE 00:45:21 CAM 2 00:07:48 00:01:45 NON LICENCIE 13,892 04:19
52 155 SPILLIAERT FLORENCE 00:45:24 V1F 1 00:07:51 00:00:00 LE DRAPEAU 13,877 04:19
53 160 MIRMONT REMY 00:45:25 SEM 23 00:07:52 00:06:11 LE DRAPEAU 13,872 04:20
54 215 CHAUCHOY OLIVIER 00:45:27 V1M 22 00:07:54 00:07:54 COLEMBERT 13,861 04:20
55 207 WIERRE LAURENT 00:45:35 SEM 24 00:08:02 00:06:21 ATHLETIQUE CLUB CAPELLOIS 13,821 04:20
56 312 LEVEL EDDY 00:45:36 SEM 25 00:08:03 00:06:22 NON LICENCIE 13,816 04:21
57 168 CHOUROT LUCIEN 00:45:42 V2M 4 00:08:09 00:01:21 LE DRAPEAU 13,786 04:21
58 217 FATRAS FREDERIC 00:45:45 V1M 23 00:08:12 00:08:12 COLEMBERT 13,770 04:21
59 286 DEWISME BASILE 00:45:58 SEM 26 00:08:25 00:06:44 NON LICENCIE 13,706 04:23
60 248 BUY JACQUES 00:46:07 V2M 5 00:08:34 00:01:46 PATRIOTES DE GUINES 13,661 04:24
61 162 LEVEL LINA 00:46:17 SEF 2 00:08:44 00:01:11 LE DRAPEAU 13,612 04:24
62 235 LELEU WILLY 00:46:23 V1M 24 00:08:50 00:08:50 NON LICENCIE 13,582 04:25
63 184 LELEU JEAN-EMMANUEL 00:46:27 CAM 3 00:08:54 00:02:51 NON LICENCIE 13,563 04:25
64 265 LAMARRE JEAN-LUC 00:46:28 V2M 6 00:08:55 00:02:07 NON LICENCIE 13,558 04:26
65 298 WASSELIN JULIEN 00:46:30 SEM 27 00:08:57 00:07:16 NON LICENCIE 13,548 04:26
66 133 LEBAS ERIC 00:46:34 V1M 25 00:09:01 00:09:01 AMICALE HOSPITALIERS BOULOGNE 13,529 04:26
67 273 GRONIER MICHAEL 00:46:38 V1M 26 00:09:05 00:09:05 SPORT EVASION DES 2 CAPS 13,510 04:26
68 231 BATILLIOT DOMINIQUE 00:46:47 V1F 2 00:09:14 00:01:23 PATRIOTES DE GUINES 13,466 04:27
69 147 FLAHAUT DANIEL 00:46:49 V1M 27 00:09:16 00:09:16 LE DRAPEAU 13,457 04:28
70 236 TILLIER LUDOVIC 00:46:52 SEM 28 00:09:19 00:07:38 WIMEREUX RUNNING CLUB 13,442 04:28
71 274 DUMONT PATRICE 00:46:53 SEM 29 00:09:20 00:07:39 BOURTHES 13,438 04:28
72 252 LAURENT OLIVIER 00:46:53 SEM 30 00:09:20 00:07:39 Non licencié 13,438 04:28
73 264 RAY SAMUEL 00:46:57 V1M 28 00:09:24 00:09:24 CULTURE DANSE ETAPLES 13,419 04:28
74 175 BALY FRANCOIS 00:47:14 SEM 31 00:09:41 00:08:00 NON LICENCIE 13,338 04:30
75 205 SAUVAGE LAURENT 00:47:23 V1M 29 00:09:50 00:09:50 ATHLETIQUE CLUB CAPELLOIS 13,296 04:31
76 113 MAHIEUX JEAN LUC 00:47:27 V2M 7 00:09:54 00:03:06 NON LICENCIE 13,277 04:31
77 152 GRESSIER YANNICK 00:47:32 V1M 30 00:09:59 00:09:59 LE DRAPEAU 13,254 04:32
78 315 DEBUSSCHERE MARC 00:47:40 V1M 31 00:10:07 00:10:07 NON LICENCIE 13,217 04:32
79 255 SIABAS JEAN-MICHEL 00:47:44 V1M 32 00:10:11 00:10:11 SAINT MARTIN ATHLETISME 13,198 04:33
80 256 LELEU CHRISTOPHE 00:47:48 V1M 33 00:10:15 00:10:15 Non licencié 13,180 04:33
81 249 HENQUEZ YVES 00:47:50 V4M 1 00:10:17 00:00:00 PATRIOTES DE GUINES 13,171 04:33
82 154 INGOUF NATHALIE 00:47:58 V1F 3 00:10:25 00:02:34 LE DRAPEAU 13,134 04:34
83 141 HANON JEAN-PIERRE 00:48:00 V2M 8 00:10:27 00:03:39 LE DRAPEAU 13,125 04:34
84 241 MASSET CLAUDE 00:48:12 V2M 9 00:10:39 00:03:51 NON LICENCIE 13,071 04:35
85 101 PAINSET NICOLAS 00:48:18 SEM 32 00:10:45 00:09:04 NON LICENCIE 13,043 04:36
86 140 MERLIN LOIC 00:48:28 SEM 33 00:10:55 00:09:14 NON LICENCIE 12,999 04:37
87 258 HANQUEZ OLIVIER 00:48:30 SEM 34 00:10:57 00:09:16 NON LICENCIE 12,990 04:37
88 244 LETITRE BRUNO 00:48:32 SEM 35 00:10:59 00:09:18 NON LICENCIE 12,981 04:37
89 180 DELATTAIGNANT ARNAUD 00:48:41 V1M 34 00:11:08 00:11:08 NON LICENCIE 12,941 04:38
90 110 BALY PATRICK 00:48:45 V2M 10 00:11:12 00:04:24 OGS CYCLISME 12,923 04:39
91 148 MARIETTE YVETTE 00:48:46 V2F 1 00:11:13 00:00:00 LE DRAPEAU 12,919 04:39
92 280 FALEMPIN SYLVAIN 00:49:11 V1M 35 00:11:38 00:11:38 NON LICENCIE 12,809 04:41
93 134 LOEUILLEUX BERTRAND 00:49:11 V2M 11 00:11:38 00:04:50 AMICALE HOSPITALIERS BOULOGNE 12,809 04:41
94 287 DEWISME ANTOINE 00:49:14 SEM 36 00:11:41 00:10:00 NON LICENCIE 12,796 04:41
95 111 VERMOOTE CHRISTELE 00:49:15 V1F 4 00:11:42 00:03:51   12,792 04:41
96 127 SIGIEZ FABIEN 00:49:16 V1M 36 00:11:43 00:11:43 NON LICENCIE 12,788 04:42
97 112 VERMOOTE FREDERIC 00:49:16 V1M 37 00:11:43 00:11:43   12,788 04:42
98 307 HOLUIGUE FREDERIC 00:49:20 SEM 37 00:11:47 00:10:06 NON LICENCIE 12,770 04:42
99 208 BEAUGRAND GREGORY 00:49:22 V1M 38 00:11:49 00:11:49 ATHLETIQUE CLUB CAPELLOIS 12,762 04:42
100 261 SAILLY DOMINIQUE 00:49:27 SEM 38 00:11:54 00:10:13 ASU DUNKERQUE 12,740 04:43
101 300 SAUVAGE GASTON 00:49:31 CAM 4 00:11:58 00:05:55 NON LICENCIE 12,723 04:43
102 257 COUVELARD OLIVIER 00:49:38 V1M 39 00:12:05 00:12:05 LES FURETS D EIFFAGE 12,693 04:44
103 233 GRIERE PHILIPPE 00:49:57 V1M 40 00:12:24 00:12:24 NON LICENCIE 12,613 04:45
104 128 CARPENTIER NICOLAS 00:49:57 SEM 39 00:12:24 00:10:43 AMICALE HOSPITALIERS BOULOGNE 12,613 04:45
105 171 CANONNE FANNY 00:50:04 SEF 3 00:12:31 00:04:58 LE DRAPEAU 12,583 04:46
106 237 FONTAINE XAVIER 00:50:05 V2M 12 00:12:32 00:05:44 WIMEREUX RUNNING CLUB 12,579 04:46
107 156 DOCQUOIS MICHEL 00:50:06 V1M 41 00:12:33 00:12:33 LE DRAPEAU 12,575 04:46
108 251 QUENNEHEN HERVE 00:50:25 V1M 42 00:12:52 00:12:52 NON LICENCIE 12,496 04:48
109 224 APHERVE REGIS 00:50:33 V1M 43 00:13:00 00:13:00 NON LICENCIE 12,463 04:49
110 129 BERANGER FLORIAN 00:50:37 SEM 40 00:13:04 00:11:23 AMICALE HOSPITALIERS BOULOGNE 12,446 04:49
111 104 LEDUC JEAN-MAURICE 00:50:40 SEM 41 00:13:07 00:11:26 NON LICENCIE 12,434 04:50
112 316 MARIQUE MARCEAU 00:50:45 JUM 3 00:13:12 00:10:02 COLEMBERT 12,414 04:50
113 281 DELATTRE GUILLAUME 00:50:47 SEM 42 00:13:14 00:11:33 NON LICENCIE 12,406 04:50
114 189 TISSERAND THIBAUT 00:50:50 JUM 4 00:13:17 00:10:07 NON LICENCIE 12,393 04:50
115 216 DETHOOR DOMINIQUE 00:50:51 V2M 13 00:13:18 00:06:30 COLEMBERT 12,389 04:51
116 188 WYLLEMAN NATHALIE 00:50:52 V1F 5 00:13:19 00:05:28 TOUQUET 12,385 04:51
117 191 DEBAS GERARD 00:51:01 V3M 1 00:13:28 00:00:00 US SAMER CYCLO 12,349 04:52
118 293 VANMARCKE LUC-OLIVIER 00:51:07 SEM 43 00:13:34 00:11:53   12,325 04:52
119 190 CONDETTE JEAN-LUC 00:51:15 V2M 14 00:13:42 00:06:54   12,293 04:53
120 201 OVION SYLVESTRE 00:51:18 V1M 44 00:13:45 00:13:45 ATHLETIQUE CLUB CAPELLOIS 12,281 04:53
121 203 BREQUEVILLE LIONEL 00:51:22 V1M 45 00:13:49 00:13:49 ATHLETIQUE CLUB CAPELLOIS 12,265 04:54
122 103 BASSEMENT YHOANN 00:51:22 SEM 44 00:13:49 00:12:08 NON LICENCIE 12,265 04:54
123 196 LIGNIER GERMAIN 00:51:26 SEM 45 00:13:53 00:12:12 NON LICENCIE 12,249 04:54
124 206 BETENCOURT THIERRY 00:51:27 SEM 46 00:13:54 00:12:13 ATHLETIQUE CLUB CAPELLOIS 12,245 04:54
125 106 DEPLECHIN LUDIVINE 00:51:27 SEF 4 00:13:54 00:06:21 NON LICENCIE 12,245 04:54
126 222 DEPLECHIN DAVID 00:51:29 SEM 47 00:13:56 00:12:15 NON LICENCIE 12,237 04:54
127 158 NAJMI AICHA 00:51:31 V1F 6 00:13:58 00:06:07 LE DRAPEAU 12,229 04:54
128 144 PAQUES ERIC 00:51:32 V2M 15 00:13:59 00:07:11 LE DRAPEAU 12,225 04:54
129 278 MAGNIER GERALD 00:51:42 V1M 46 00:14:09 00:14:09 ATHLETIQUE CLUB CAPELLOIS 12,186 04:55
130 130 BERANGER JEAN-CHARLES 00:51:51 V2M 16 00:14:18 00:07:30 AMICALE HOSPITALIERS BOULOGNE 12,150 04:56
131 305 REMY FABRICE 00:51:58 V1M 47 00:14:25 00:14:25 NON LICENCIE 12,123 04:57
132 301 LOEUILLIEUX JULIEN 00:52:11 SEM 48 00:14:38 00:12:57 NON LICENCIE 12,073 04:58
133 304 DEBOVE JEAN MARC 00:52:21 V3M 2 00:14:48 00:01:20 NON LICENCIE 12,034 04:59
134 210 LEBON RUDY 00:52:25 SEM 49 00:14:52 00:13:11 ATHLETIQUE CLUB CAPELLOIS 12,019 05:00
135 211 MANCHUELLE STEPHANE 00:52:30 V1M 48 00:14:57 00:14:57 ATHLETIQUE CLUB CAPELLOIS 12,000 05:00
136 279 SAILLY FABIEN 00:52:32 SEM 50 00:14:59 00:13:18 NON LICENCIE 11,992 05:00
137 173 DELLIAUX ROMAIN 00:52:37 SEM 51 00:15:04 00:13:23 LE DRAPEAU 11,973 05:01
138 182 GOMEL FLORENCE 00:52:37 SEF 5 00:15:04 00:07:31 NON LICENCIE 11,973 05:01
139 143 LEBEGUE THERESE 00:52:38 V2F 2 00:15:05 00:03:52 LE DRAPEAU 11,970 05:01
140 145 LAMORY MARTINE 00:52:40 V2F 3 00:15:07 00:03:54 LE DRAPEAU 11,962 05:01
141 169 CODRON STEPHANE 00:52:47 V1M 49 00:15:14 00:15:14 LE DRAPEAU 11,936 05:02
142 310 MOREAU JEAN-FRANCOIS 00:52:58 SEM 52 00:15:25 00:13:44 NON LICENCIE 11,894 05:03
143 321 MAQUINGHEN CELINE 00:53:06 SEF 6 00:15:33 00:08:00 SAINT MARTIN ATHLETISME 11,864 05:03
144 309 DUWEZ DOMINIQUE 00:53:15 V1M 50 00:15:42 00:15:42 NON LICENCIE 11,831 05:04
145 225 LENCEL PHILIPPE 00:53:21 V1M 51 00:15:48 00:15:48 NON LICENCIE 11,809 05:05
146 246 BIZET VINCENT 00:53:24 SEM 53 00:15:51 00:14:10 NON LICENCIE 11,798 05:05
147 172 FAUQUENOY ALAIN 00:53:28 V1M 52 00:15:55 00:15:55 NON LICENCIE 11,783 05:06
148 192 LEVEL FRANCOIS 00:53:35 V1M 53 00:16:02 00:16:02 NON LICENCIE 11,757 05:06
149 242 GARENAUX FRANCOIS 00:53:40 V1M 54 00:16:07 00:16:07 NON LICENCIE 11,739 05:07
150 250 BECQUET KARINE 00:53:52 SEF 7 00:16:19 00:08:46 PATRIOTES DE GUINES 11,696 05:08
151 324 CAUDRELIER SABINE 00:54:08 V1F 7 00:16:35 00:08:44 NON LICENCIE 11,638 05:09
152 219 SERGENT LAURENT 00:54:09 V2M 17 00:16:36 00:09:48 COLEMBERT 11,634 05:09
153 214 BERTIN JOSE 00:54:16 V2M 18 00:16:43 00:09:55 COLEMBERT 11,609 05:10
154 157 LAHAYE MICHEL 00:54:19 V2M 19 00:16:46 00:09:58 LE DRAPEAU 11,599 05:10
155 139 LAVERDURE PASCAL 00:54:36 V2M 20 00:17:03 00:10:15 NON LICENCIE 11,538 05:12
156 164 HOLUIGUE SABINE 00:54:45 SEF 8 00:17:12 00:09:39 LE DRAPEAU 11,507 05:13
157 292 VANMARCKE JEAN-YVES 00:54:47 SEM 54 00:17:14 00:15:33 NON LICENCIE 11,500 05:13
158 142 HANON LILIANE 00:55:06 V2F 4 00:17:33 00:06:20 LE DRAPEAU 11,434 05:15
159 166 LEPERCQ FLORENT 00:55:06 V2M 21 00:17:33 00:10:45 LE DRAPEAU 11,434 05:15
160 330 LACHERE JEROME 00:55:14 SEM 55 00:17:41 00:16:00   11,406 05:16
161 185 LELEU FRANCK 00:55:18 V1M 55 00:17:45 00:17:45 NON LICENCIE 11,392 05:16
162 234 FARNWORTH GRAEME 00:55:19 SEM 56 00:17:46 00:16:05 NON LICENCIE 11,389 05:16
163 311 LASSON NATHALIE 00:55:22 V1F 8 00:17:49 00:09:58 NON LICENCIE 11,379 05:16
164 239 GAVOIS CYRIL 00:55:22 SEM 57 00:17:49 00:16:08 SPORT EVASION DES 2 CAPS 11,379 05:16
165 153 GRESSIER DELPHINE 00:55:25 SEF 9 00:17:52 00:10:19 LE DRAPEAU 11,368 05:17
166 299 FAUQUEMBERGUE PHILIPPE 00:55:39 V1M 56 00:18:06 00:18:06 NON LICENCIE 11,321 05:18
167 199 OBERT THIERRY 00:55:39 V1M 57 00:18:06 00:18:06 NON LICENCIE 11,321 05:18
168 100 FLEURY CEDRIC 00:55:49 V1M 1 00:18:16 00:00:00   11,287 05:19
169 230 MALFOY JEAN-PIERRE 00:56:15 V3M 3 00:18:42 00:05:14 SAINT MARTIN ATHLETISME 11,200 05:21
170 105 FORTIN BENOIT 00:56:24 SEM 58 00:18:51 00:17:10   11,170 05:22
171 272 SART LAURENCE 00:56:25 SEF 10 00:18:52 00:11:19 NON LICENCIE 11,167 05:22
172 317 MARIQUE PERRINE 00:56:39 CAF 1 00:19:06 00:00:00 COLEMBERT 11,121 05:24
173 288 HEUX JACQUELINE 00:56:46 V1F 9 00:19:13 00:11:22 COLEMBERT 11,098 05:24
174 303 LYOEN JEAN-MARC 00:56:51 V2M 22 00:19:18 00:12:30 LES FOULEES ARDRESIENNES 11,082 05:25
175 183 BERNARD SYLVIE 00:57:04 V1F 10 00:19:31 00:11:40 NON LICENCIE 11,040 05:26
176 268 MAGNIER REGIS 00:57:19 V1M 58 00:19:46 00:19:46 CULTURE DANSE ETAPLES 10,992 05:28
177 220 PERSYN STEPHANE 00:57:56 V2M 23 00:20:23 00:13:35   10,875 05:31
178 319 YVENOU XAVIER 00:58:06 V1M 59 00:20:33 00:20:33 NON LICENCIE 10,843 05:32
179 318 ROGER SYLVAIN 00:58:06 V1M 60 00:20:33 00:20:33 NON LICENCIE 10,843 05:32
180 240 MASSET VERONIQUE 00:58:18 V1F 11 00:20:45 00:12:54 NON LICENCIE 10,806 05:33
181 228 MALFOY ROMAIN 00:58:32 SEM 59 00:20:59 00:19:18 SAINT MARTIN ATHLETISME 10,763 05:34
182 136 PETIT FREDERIC 00:58:41 V2M 24 00:21:08 00:14:20 AMICALE HOSPITALIERS BOULOGNE 10,736 05:35
183 194 MAZURIER LOUISE 00:58:49 CAF 2 00:21:16 00:02:10 NON LICENCIE 10,711 05:36
184 198 NEMETH OLIVIER 00:58:53 V2M 25 00:21:20 00:14:32 NON LICENCIE 10,699 05:36
185 325 LECOMTE NICOLAS 00:58:58 SEM 60 00:21:25 00:19:44 NON LICENCIE 10,684 05:37
186 323 DUCROCQ NICOLAS 00:59:10 SEM 61 00:21:37 00:19:56 NON LICENCIE 10,648 05:38
187 306 LAMOUR ANNE-CHANTAL 00:59:24 V2F 5 00:21:51 00:10:38 NON LICENCIE 10,606 05:39
188 270 SAILLY KAREN 00:59:25 SEF 11 00:21:52 00:14:19 NON LICENCIE 10,603 05:40
189 229 CARON LYUBA 00:59:43 V3F 1 00:22:10 00:00:00 SAINT MARTIN ATHLETISME 10,550 05:41
190 294 SERGENT MODESTINE 01:00:01 SEF 12 00:22:28 00:14:55 NON LICENCIE 10,497 05:43
191 123 MARTEL ERIC 01:00:02 V1M 61 00:22:29 00:22:29 TEAM TRAIL 62 10,494 05:43
192 263 RAY ISABELLE 01:00:09 SEF 13 00:22:36 00:15:03 CULTURE DANSE ETAPLES 10,474 05:44
193 121 CAFFIER GREGORY 01:00:34 SEM 62 00:23:01 00:21:20 NON LICENCIE 10,402 05:46
194 181 CHIVET CATHERINE 01:00:49 V1F 12 00:23:16 00:15:25 NON LICENCIE 10,359 05:48
195 227 REMBUR VIRGINIE 01:00:52 V2F 6 00:23:19 00:12:06 TOUQUET OPALE ATHLETISME 10,350 05:48
196 269 PHILIPPOT LAETITIA 01:02:19 SEF 14 00:24:46 00:17:13 CULTURE DANSE ETAPLES 10,110 05:56
197 266 VAMBRE SERGIO 01:02:20 V2M 26 00:24:47 00:17:59 CULTURE DANSE ETAPLES 10,107 05:56
198 193 LEVEL CORALINE 01:02:43 CAF 3 00:25:10 00:06:04 NON LICENCIE 10,045 05:58
199 200 OBERT ANITA 01:03:03 V1F 13 00:25:30 00:17:39 NON LICENCIE 9,992 06:00
200 178 AMAT CHRISTINE 01:03:04 V1F 14 00:25:31 00:17:40 NON LICENCIE 9,989 06:00
201 254 SMEE BERNARD 01:03:14 V3M 4 00:25:41 00:12:13 NON LICENCIE 9,963 06:01
202 186 LELEU FABIENNE 01:03:16 V1F 15 00:25:43 00:17:52 NON LICENCIE 9,958 06:02
203 179 FAUQUEMBERGUE VERONIQUE 01:03:34 V1F 16 00:26:01 00:18:10 NON LICENCIE 9,911 06:03
204 285 DEWISME CLAIRE 01:04:10 SEF 15 00:26:37 00:19:04 NON LICENCIE 9,818 06:07
205 302 SAUVAGE MARGOT 01:04:11 JUF 1 00:26:38 00:00:00 NON LICENCIE 9,816 06:07
206 262 DENIS NORBERT 01:04:17 V3M 5 00:26:44 00:13:16 STADE LONGUENESSOIS 9,800 06:07
207 176 ROCHARD NATHALIE 01:04:26 V1F 17 00:26:53 00:19:02 NON LICENCIE 9,778 06:08
208 135 MINET ROGER 01:04:36 V3M 6 00:27:03 00:13:35 AMICALE HOSPITALIERS BOULOGNE 9,752 06:09
209 159 MOLET DOMINIQUE 01:04:41 V3F 2 00:27:08 00:04:58 LE DRAPEAU 9,740 06:10
210 223 LANOY MARIELLE 01:04:51 V2F 7 00:27:18 00:16:05 LE DRAPEAU 9,715 06:11
211 197 TRIPLET DAVID 01:05:03 V1M 62 00:27:30 00:27:30 NON LICENCIE 9,685 06:12
212 109 DESCAMPS Thierry 01:05:16 V2M 27 00:27:43 00:20:55 NON LICENCIE 9,653 06:13
213 108 GREVET Gilles 01:05:16 V1M 63 00:27:43 00:27:43 NON LICENCIE 9,653 06:13
214 126 DARRE NADINE 01:05:17 V1F 18 00:27:44 00:19:53 NON LICENCIE 9,650 06:13
215 290 DEMARCHELIER MARION 01:05:19 SEF 16 00:27:46 00:20:13 COLEMBERT 9,645 06:13
216 209 LEBON AUDREY 01:05:30 SEF 17 00:27:57 00:20:24 ATHLETIQUE CLUB CAPELLOIS 9,618 06:14
217 114 HAMY DANIELE 01:06:58 V1F 19 00:29:25 00:21:34   9,408 06:23
218 115 FAUQUET ISABELLE 01:06:58 V1F 20 00:29:25 00:21:34 NON LICENCIE 9,408 06:23
219 329 DUFLOS ALINE 01:08:01 SEF 18 00:30:28 00:22:55   9,262 06:29
220 120 CAFFIER VIRGINIE 01:09:59 SEF 19 00:32:26 00:24:53 NON LICENCIE 9,002 06:40
221 150 CHAILLOUX ERIC 01:11:28 V1M 64 00:33:55 00:33:55 LE DRAPEAU 8,815 06:48
222 174 LYOEN ANAIS 01:14:11 SEF 20 00:36:38 00:29:05 NON LICENCIE 8,492 07:04
223 202 OVION AGNES 01:21:10 V1F 21 00:43:37 00:35:46 ATHLETIQUE CLUB CAPELLOIS 7,762 07:44
224 204 BREQUEVILLE GERALDINE 01:22:26 V1F 22 00:44:53 00:37:02 ATHLETIQUE CLUB CAPELLOIS 7,643 07:51
225 125 MAHIEUX MARYSE 01:25:49 V2F 8 00:48:16 00:37:03 NON LICENCIE 7,341 08:10
Juin 2018
Lun Mar Mer Jeu Ven Sam Dim
1
2
3
4
5
6
7
8
9
10
11
12
13
14
15
16
17
18
19
20
21
22
23
25
26
27
28
29
30